sensor_id;sensor_type;location;lat;lon;timestamp;pressure;altitude;pressure_sealevel;temperature;humidity
14800;BME280;7491;57.750;11.970;2023-06-14T00:01:15;75866.06;;;-142.11;100.00
14800;BME280;7491;57.750;11.970;2023-06-14T00:03:42;75886.44;;;-142.11;100.00
14800;BME280;7491;57.750;11.970;2023-06-14T00:06:09;75878.28;;;-142.11;100.00
14800;BME280;7491;57.750;11.970;2023-06-14T00:08:36;75882.38;;;-142.11;100.00
14800;BME280;7491;57.750;11.970;2023-06-14T00:11:03;75892.56;;;-142.11;100.00
14800;BME280;7491;57.750;11.970;2023-06-14T00:13:31;75890.53;;;-142.11;100.00
14800;BME280;7491;57.750;11.970;2023-06-14T00:15:58;75910.91;;;-142.11;100.00
14800;BME280;7491;57.750;11.970;2023-06-14T00:18:25;75908.88;;;-142.11;100.00
14800;BME280;7491;57.750;11.970;2023-06-14T00:20:55;75906.81;;;-142.11;100.00
14800;BME280;7491;57.750;11.970;2023-06-14T00:23:22;75912.94;;;-142.11;100.00
14800;BME280;7491;57.750;11.970;2023-06-14T00:25:49;75906.81;;;-142.11;100.00
14800;BME280;7491;57.750;11.970;2023-06-14T00:28:16;75914.97;;;-142.11;100.00
14800;BME280;7491;57.750;11.970;2023-06-14T00:30:44;75906.81;;;-142.11;100.00
14800;BME280;7491;57.750;11.970;2023-06-14T00:33:12;75931.28;;;-142.11;100.00
14800;BME280;7491;57.750;11.970;2023-06-14T00:35:39;75929.25;;;-142.11;100.00
14800;BME280;7491;57.750;11.970;2023-06-14T00:38:06;75927.22;;;-142.11;100.00
14800;BME280;7491;57.750;11.970;2023-06-14T00:40:32;75939.44;;;-142.11;100.00
14800;BME280;7491;57.750;11.970;2023-06-14T00:43:00;75943.50;;;-142.11;100.00
14800;BME280;7491;57.750;11.970;2023-06-14T00:45:27;75949.63;;;-142.11;100.00
14800;BME280;7491;57.750;11.970;2023-06-14T00:47:55;75951.66;;;-142.11;100.00
14800;BME280;7491;57.750;11.970;2023-06-14T00:50:23;75953.72;;;-142.11;100.00
14800;BME280;7491;57.750;11.970;2023-06-14T00:52:50;75963.91;;;-142.11;100.00
14800;BME280;7491;57.750;11.970;2023-06-14T00:55:17;75961.88;;;-142.11;100.00
14800;BME280;7491;57.750;11.970;2023-06-14T00:57:44;75955.75;;;-142.11;100.00
14800;BME280;7491;57.750;11.970;2023-06-14T01:00:12;75972.06;;;-142.11;100.00
14800;BME280;7491;57.750;11.970;2023-06-14T01:02:40;75961.88;;;-142.11;100.00
14800;BME280;7491;57.750;11.970;2023-06-14T01:05:09;75978.16;;;-142.11;100.00
14800;BME280;7491;57.750;11.970;2023-06-14T01:07:45;75974.09;;;-142.11;100.00
14800;BME280;7491;57.750;11.970;2023-06-14T01:10:28;75982.25;;;-142.11;100.00
14800;BME280;7491;57.750;11.970;2023-06-14T01:13:03;75970.00;;;-142.11;100.00
14800;BME280;7491;57.750;11.970;2023-06-14T01:15:32;75974.09;;;-142.11;100.00
14800;BME280;7491;57.750;11.970;2023-06-14T01:17:59;75972.06;;;-142.11;100.00
14800;BME280;7491;57.750;11.970;2023-06-14T01:20:32;75972.06;;;-142.11;100.00
14800;BME280;7491;57.750;11.970;2023-06-14T01:23:03;75972.06;;;-142.11;100.00
14800;BME280;7491;57.750;11.970;2023-06-14T01:25:30;75978.16;;;-142.11;100.00
14800;BME280;7491;57.750;11.970;2023-06-14T01:27:59;75976.13;;;-142.11;100.00
14800;BME280;7491;57.750;11.970;2023-06-14T01:30:27;75976.13;;;-142.11;100.00
14800;BME280;7491;57.750;11.970;2023-06-14T01:32:57;75978.16;;;-142.11;100.00
14800;BME280;7491;57.750;11.970;2023-06-14T01:35:24;75976.13;;;-142.11;100.00
14800;BME280;7491;57.750;11.970;2023-06-14T01:37:51;75980.22;;;-142.11;100.00
14800;BME280;7491;57.750;11.970;2023-06-14T01:40:21;75988.34;;;-142.11;100.00
14800;BME280;7491;57.750;11.970;2023-06-14T01:42:50;75988.34;;;-142.11;100.00
14800;BME280;7491;57.750;11.970;2023-06-14T01:45:18;75990.41;;;-142.11;100.00
14800;BME280;7491;57.750;11.970;2023-06-14T01:47:46;75992.44;;;-142.11;100.00
14800;BME280;7491;57.750;11.970;2023-06-14T01:50:13;75994.47;;;-142.11;100.00
14800;BME280;7491;57.750;11.970;2023-06-14T01:52:40;75988.34;;;-142.11;100.00
14800;BME280;7491;57.750;11.970;2023-06-14T01:55:08;75992.44;;;-142.11;100.00
14800;BME280;7491;57.750;11.970;2023-06-14T01:57:36;76016.91;;;-142.11;100.00
14800;BME280;7491;57.750;11.970;2023-06-14T02:00:04;76029.13;;;-142.11;100.00
14800;BME280;7491;57.750;11.970;2023-06-14T02:02:31;76037.28;;;-142.11;100.00
14800;BME280;7491;57.750;11.970;2023-06-14T02:04:58;76063.78;;;-142.11;100.00
14800;BME280;7491;57.750;11.970;2023-06-14T02:07:24;76061.75;;;-142.11;100.00
14800;BME280;7491;57.750;11.970;2023-06-14T02:09:51;76061.75;;;-142.11;100.00
14800;BME280;7491;57.750;11.970;2023-06-14T02:12:18;76061.75;;;-142.11;100.00
14800;BME280;7491;57.750;11.970;2023-06-14T02:14:46;76061.75;;;-142.11;100.00
14800;BME280;7491;57.750;11.970;2023-06-14T02:17:14;76061.75;;;-142.11;100.00
14800;BME280;7491;57.750;11.970;2023-06-14T02:19:41;76057.66;;;-142.11;100.00
14800;BME280;7491;57.750;11.970;2023-06-14T02:22:08;76067.84;;;-142.11;100.00
14800;BME280;7491;57.750;11.970;2023-06-14T02:24:35;76067.84;;;-142.11;100.00
14800;BME280;7491;57.750;11.970;2023-06-14T02:27:02;76086.19;;;-142.11;100.00
14800;BME280;7491;57.750;11.970;2023-06-14T02:29:29;76076.00;;;-142.11;100.00
14800;BME280;7491;57.750;11.970;2023-06-14T02:31:58;76078.06;;;-142.11;100.00
14800;BME280;7491;57.750;11.970;2023-06-14T02:34:24;76082.13;;;-142.11;100.00
14800;BME280;7491;57.750;11.970;2023-06-14T02:36:52;76088.25;;;-142.11;100.00
14800;BME280;7491;57.750;11.970;2023-06-14T02:39:18;76078.06;;;-142.11;100.00
14800;BME280;7491;57.750;11.970;2023-06-14T02:41:48;76067.84;;;-142.11;100.00
14800;BME280;7491;57.750;11.970;2023-06-14T02:44:17;76063.78;;;-142.11;100.00
14800;BME280;7491;57.750;11.970;2023-06-14T02:46:44;76069.91;;;-142.11;100.00
14800;BME280;7491;57.750;11.970;2023-06-14T02:49:13;76059.69;;;-142.11;100.00
14800;BME280;7491;57.750;11.970;2023-06-14T02:51:40;76059.69;;;-142.11;100.00
14800;BME280;7491;57.750;11.970;2023-06-14T02:54:06;76061.75;;;-142.11;100.00
14800;BME280;7491;57.750;11.970;2023-06-14T02:56:33;76065.81;;;-142.11;100.00
14800;BME280;7491;57.750;11.970;2023-06-14T02:59:01;76059.69;;;-142.11;100.00
14800;BME280;7491;57.750;11.970;2023-06-14T03:01:28;76053.59;;;-142.11;100.00
14800;BME280;7491;57.750;11.970;2023-06-14T03:03:59;76057.66;;;-142.11;100.00
14800;BME280;7491;57.750;11.970;2023-06-14T03:06:28;76051.56;;;-142.11;100.00
14800;BME280;7491;57.750;11.970;2023-06-14T03:08:55;76055.63;;;-142.11;100.00
14800;BME280;7491;57.750;11.970;2023-06-14T03:11:24;76047.47;;;-142.11;100.00
14800;BME280;7491;57.750;11.970;2023-06-14T03:13:51;76037.28;;;-142.11;100.00
14800;BME280;7491;57.750;11.970;2023-06-14T03:16:18;76047.47;;;-142.11;100.00
14800;BME280;7491;57.750;11.970;2023-06-14T03:18:47;76033.22;;;-142.11;100.00
14800;BME280;7491;57.750;11.970;2023-06-14T03:21:14;76033.22;;;-142.11;100.00
14800;BME280;7491;57.750;11.970;2023-06-14T03:23:43;76029.13;;;-142.11;100.00
14800;BME280;7491;57.750;11.970;2023-06-14T03:26:10;76027.09;;;-142.11;100.00
14800;BME280;7491;57.750;11.970;2023-06-14T03:28:38;76025.06;;;-142.11;100.00
14800;BME280;7491;57.750;11.970;2023-06-14T03:31:05;76020.97;;;-142.11;100.00
14800;BME280;7491;57.750;11.970;2023-06-14T03:33:34;76010.78;;;-142.11;100.00
14800;BME280;7491;57.750;11.970;2023-06-14T03:36:01;76018.94;;;-142.11;100.00
14800;BME280;7491;57.750;11.970;2023-06-14T03:38:28;76012.81;;;-142.11;100.00
14800;BME280;7491;57.750;11.970;2023-06-14T03:40:57;76002.63;;;-142.11;100.00
14800;BME280;7491;57.750;11.970;2023-06-14T03:43:23;75996.50;;;-142.11;100.00
14800;BME280;7491;57.750;11.970;2023-06-14T03:45:50;75996.50;;;-142.11;100.00
14800;BME280;7491;57.750;11.970;2023-06-14T03:48:17;75992.44;;;-142.11;100.00
14800;BME280;7491;57.750;11.970;2023-06-14T03:50:44;75988.34;;;-142.11;100.00
14800;BME280;7491;57.750;11.970;2023-06-14T03:53:11;75980.22;;;-142.11;100.00
14800;BME280;7491;57.750;11.970;2023-06-14T03:55:37;75978.16;;;-142.11;100.00
14800;BME280;7491;57.750;11.970;2023-06-14T03:58:06;75978.16;;;-142.11;100.00
14800;BME280;7491;57.750;11.970;2023-06-14T04:00:33;75967.97;;;-142.11;100.00
14800;BME280;7491;57.750;11.970;2023-06-14T04:03:01;75957.78;;;-142.11;100.00
14800;BME280;7491;57.750;11.970;2023-06-14T04:05:30;75955.75;;;-142.11;100.00
14800;BME280;7491;57.750;11.970;2023-06-14T04:07:57;75943.50;;;-142.11;100.00
14800;BME280;7491;57.750;11.970;2023-06-14T04:10:29;75945.56;;;-142.11;100.00
14800;BME280;7491;57.750;11.970;2023-06-14T04:12:56;75935.38;;;-142.11;100.00
14800;BME280;7491;57.750;11.970;2023-06-14T04:15:24;75921.09;;;-142.11;100.00
14800;BME280;7491;57.750;11.970;2023-06-14T04:17:53;75919.06;;;-142.11;100.00
14800;BME280;7491;57.750;11.970;2023-06-14T04:20:23;75914.97;;;-142.11;100.00
14800;BME280;7491;57.750;11.970;2023-06-14T04:22:50;75894.59;;;-142.11;100.00
14800;BME280;7491;57.750;11.970;2023-06-14T04:25:18;75884.41;;;-142.11;100.00
14800;BME280;7491;57.750;11.970;2023-06-14T04:27:44;75872.19;;;-142.11;100.00
14800;BME280;7491;57.750;11.970;2023-06-14T04:30:12;75864.03;;;-142.11;100.00
14800;BME280;7491;57.750;11.970;2023-06-14T04:32:41;75853.81;;;-142.11;100.00
14800;BME280;7491;57.750;11.970;2023-06-14T04:35:08;75835.47;;;-142.11;100.00
14800;BME280;7491;57.750;11.970;2023-06-14T04:37:36;75839.56;;;-142.11;100.00
14800;BME280;7491;57.750;11.970;2023-06-14T04:40:06;75823.25;;;-142.11;100.00
14800;BME280;7491;57.750;11.970;2023-06-14T04:42:33;75821.22;;;-142.11;100.00
14800;BME280;7491;57.750;11.970;2023-06-14T04:45:02;75802.88;;;-142.11;100.00
14800;BME280;7491;57.750;11.970;2023-06-14T04:47:29;75804.91;;;-142.11;100.00
14800;BME280;7491;57.750;11.970;2023-06-14T04:49:59;75792.69;;;-142.11;100.00
14800;BME280;7491;57.750;11.970;2023-06-14T04:52:26;75764.16;;;-142.11;100.00
14800;BME280;7491;57.750;11.970;2023-06-14T04:54:55;75762.09;;;-142.11;100.00
14800;BME280;7491;57.750;11.970;2023-06-14T04:57:23;75753.94;;;-142.11;100.00
14800;BME280;7491;57.750;11.970;2023-06-14T04:59:50;75737.66;;;-142.11;100.00
14800;BME280;7491;57.750;11.970;2023-06-14T05:02:21;75733.56;;;-142.11;100.00
14800;BME280;7491;57.750;11.970;2023-06-14T05:04:49;75719.31;;;-142.11;100.00
14800;BME280;7491;57.750;11.970;2023-06-14T05:07:17;75690.75;;;-142.11;100.00
14800;BME280;7491;57.750;11.970;2023-06-14T05:09:44;75680.56;;;-142.11;100.00
14800;BME280;7491;57.750;11.970;2023-06-14T05:12:11;75670.38;;;-142.11;100.00
14800;BME280;7491;57.750;11.970;2023-06-14T05:14:38;75672.44;;;-142.11;100.00
14800;BME280;7491;57.750;11.970;2023-06-14T05:17:06;75654.06;;;-142.11;100.00
14800;BME280;7491;57.750;11.970;2023-06-14T05:19:33;75645.94;;;-142.11;100.00
14800;BME280;7491;57.750;11.970;2023-06-14T05:21:59;75639.81;;;-142.11;100.00
14800;BME280;7491;57.750;11.970;2023-06-14T05:24:29;75615.34;;;-142.11;100.00
14800;BME280;7491;57.750;11.970;2023-06-14T05:26:57;75607.19;;;-142.11;100.00
14800;BME280;7491;57.750;11.970;2023-06-14T05:29:24;75603.13;;;-142.11;100.00
14800;BME280;7491;57.750;11.970;2023-06-14T05:31:51;75582.75;;;-142.11;100.00
14800;BME280;7491;57.750;11.970;2023-06-14T05:34:18;75576.63;;;-142.11;100.00
14800;BME280;7491;57.750;11.970;2023-06-14T05:36:44;75572.56;;;-142.11;100.00
14800;BME280;7491;57.750;11.970;2023-06-14T05:39:12;75562.34;;;-142.11;100.00
14800;BME280;7491;57.750;11.970;2023-06-14T05:41:40;75556.25;;;-142.11;100.00
14800;BME280;7491;57.750;11.970;2023-06-14T05:44:08;75550.13;;;-142.11;100.00
14800;BME280;7491;57.750;11.970;2023-06-14T05:46:35;75535.88;;;-142.11;100.00
14800;BME280;7491;57.750;11.970;2023-06-14T05:49:02;75523.63;;;-142.11;100.00
14800;BME280;7491;57.750;11.970;2023-06-14T05:51:28;75503.25;;;-142.11;100.00
14800;BME280;7491;57.750;11.970;2023-06-14T05:53:55;75486.94;;;-142.11;100.00
14800;BME280;7491;57.750;11.970;2023-06-14T05:56:22;75480.84;;;-142.11;100.00
14800;BME280;7491;57.750;11.970;2023-06-14T05:58:50;75462.50;;;-142.11;100.00
14800;BME280;7491;57.750;11.970;2023-06-14T06:01:17;75452.31;;;-142.11;100.00
14800;BME280;7491;57.750;11.970;2023-06-14T06:03:44;75436.00;;;-142.11;100.00
14800;BME280;7491;57.750;11.970;2023-06-14T06:06:13;75419.69;;;-142.11;100.00
14800;BME280;7491;57.750;11.970;2023-06-14T06:08:40;75395.25;;;-142.11;100.00
14800;BME280;7491;57.750;11.970;2023-06-14T06:11:07;75372.81;;;-142.11;100.00
14800;BME280;7491;57.750;11.970;2023-06-14T06:13:35;75356.50;;;-142.11;100.00
14800;BME280;7491;57.750;11.970;2023-06-14T06:16:04;75350.41;;;-142.11;100.00
14800;BME280;7491;57.750;11.970;2023-06-14T06:18:31;75336.13;;;-142.11;100.00
14800;BME280;7491;57.750;11.970;2023-06-14T06:20:58;75319.81;;;-142.11;100.00
14800;BME280;7491;57.750;11.970;2023-06-14T06:23:25;75295.38;;;-142.11;100.00
14800;BME280;7491;57.750;11.970;2023-06-14T06:25:51;75289.25;;;-142.11;100.00
14800;BME280;7491;57.750;11.970;2023-06-14T06:28:18;75266.84;;;-142.11;100.00
14800;BME280;7491;57.750;11.970;2023-06-14T06:30:45;75258.69;;;-142.11;100.00
14800;BME280;7491;57.750;11.970;2023-06-14T06:33:14;75242.38;;;-142.11;99.82
14800;BME280;7491;57.750;11.970;2023-06-14T06:35:40;75219.97;;;-142.11;99.76
14800;BME280;7491;57.750;11.970;2023-06-14T06:38:08;75197.56;;;-142.11;98.49
14800;BME280;7491;57.750;11.970;2023-06-14T06:40:35;75171.06;;;-142.11;97.84
14800;BME280;7491;57.750;11.970;2023-06-14T06:43:02;75150.69;;;-142.11;96.39
14800;BME280;7491;57.750;11.970;2023-06-14T06:45:29;75126.22;;;-142.11;95.94
14800;BME280;7491;57.750;11.970;2023-06-14T06:47:56;75087.50;;;-142.11;95.65
14800;BME280;7491;57.750;11.970;2023-06-14T06:50:24;75063.06;;;-142.11;95.10
14800;BME280;7491;57.750;11.970;2023-06-14T06:52:51;75036.56;;;-142.11;93.95
14800;BME280;7491;57.750;11.970;2023-06-14T06:55:18;75003.97;;;-142.11;92.07
14800;BME280;7491;57.750;11.970;2023-06-14T06:57:47;74985.63;;;-142.11;92.17
14800;BME280;7491;57.750;11.970;2023-06-14T07:00:15;74963.19;;;-142.11;92.01
14800;BME280;7491;57.750;11.970;2023-06-14T07:02:43;74936.72;;;-142.11;90.71
14800;BME280;7491;57.750;11.970;2023-06-14T07:05:09;74930.59;;;-142.11;90.99
14800;BME280;7491;57.750;11.970;2023-06-14T07:07:40;74912.25;;;-142.11;89.31
14800;BME280;7491;57.750;11.970;2023-06-14T07:10:07;74889.84;;;-142.11;88.85
14800;BME280;7491;57.750;11.970;2023-06-14T07:12:34;74871.50;;;-142.11;86.75
14800;BME280;7491;57.750;11.970;2023-06-14T07:15:05;74836.84;;;-142.11;86.85
14800;BME280;7491;57.750;11.970;2023-06-14T07:17:32;74838.91;;;-142.11;86.73
14800;BME280;7491;57.750;11.970;2023-06-14T07:19:59;74853.16;;;-142.11;86.59
14800;BME280;7491;57.750;11.970;2023-06-14T07:22:29;74820.56;;;-142.11;88.71
14800;BME280;7491;57.750;11.970;2023-06-14T07:24:57;74806.28;;;-142.11;89.91
14800;BME280;7491;57.750;11.970;2023-06-14T07:27:24;74777.75;;;-142.11;88.85
14800;BME280;7491;57.750;11.970;2023-06-14T07:29:51;74781.84;;;-142.11;87.79
14800;BME280;7491;57.750;11.970;2023-06-14T07:32:17;74775.72;;;-142.11;88.36
14800;BME280;7491;57.750;11.970;2023-06-14T07:34:45;74741.09;;;-142.11;88.33
14800;BME280;7491;57.750;11.970;2023-06-14T07:37:12;74718.66;;;-142.11;84.75
14800;BME280;7491;57.750;11.970;2023-06-14T07:39:39;74716.63;;;-142.11;83.78
14800;BME280;7491;57.750;11.970;2023-06-14T07:42:07;74702.38;;;-142.11;83.26
14800;BME280;7491;57.750;11.970;2023-06-14T07:44:34;74708.47;;;-142.11;81.47
14800;BME280;7491;57.750;11.970;2023-06-14T07:47:01;74706.44;;;-142.11;81.95
14800;BME280;7491;57.750;11.970;2023-06-14T07:49:28;74677.91;;;-142.11;82.41
14800;BME280;7491;57.750;11.970;2023-06-14T07:51:54;74663.66;;;-142.11;80.50
14800;BME280;7491;57.750;11.970;2023-06-14T07:54:21;74655.50;;;-142.11;81.46
14800;BME280;7491;57.750;11.970;2023-06-14T07:56:50;74667.72;;;-142.11;83.59
14800;BME280;7491;57.750;11.970;2023-06-14T07:59:19;74653.47;;;-142.11;86.14
14800;BME280;7491;57.750;11.970;2023-06-14T08:01:45;74653.47;;;-142.11;84.86
14800;BME280;7491;57.750;11.970;2023-06-14T08:04:13;74649.41;;;-142.11;85.57
14800;BME280;7491;57.750;11.970;2023-06-14T08:06:40;74641.25;;;-142.11;86.22
14800;BME280;7491;57.750;11.970;2023-06-14T08:09:09;74675.88;;;-142.11;84.43
14800;BME280;7491;57.750;11.970;2023-06-14T08:11:36;74686.06;;;-142.11;84.96
14800;BME280;7491;57.750;11.970;2023-06-14T08:14:03;74690.16;;;-142.11;84.35
14800;BME280;7491;57.750;11.970;2023-06-14T08:16:31;74661.63;;;-142.11;87.01
14800;BME280;7491;57.750;11.970;2023-06-14T08:18:58;74645.31;;;-142.11;84.92
14800;BME280;7491;57.750;11.970;2023-06-14T08:21:25;74616.78;;;-142.11;84.54
14800;BME280;7491;57.750;11.970;2023-06-14T08:23:54;74588.25;;;-142.11;82.98
14800;BME280;7491;57.750;11.970;2023-06-14T08:26:21;74602.53;;;-142.11;82.09
14800;BME280;7491;57.750;11.970;2023-06-14T08:28:48;74616.78;;;-142.11;82.78
14800;BME280;7491;57.750;11.970;2023-06-14T08:31:15;74653.47;;;-142.11;81.16
14800;BME280;7491;57.750;11.970;2023-06-14T08:33:43;74647.34;;;-142.11;80.99
14800;BME280;7491;57.750;11.970;2023-06-14T08:36:10;74647.34;;;-142.11;81.52
14800;BME280;7491;57.750;11.970;2023-06-14T08:38:38;74643.28;;;-142.11;80.48
14800;BME280;7491;57.750;11.970;2023-06-14T08:41:05;74645.31;;;-142.11;79.43
14800;BME280;7491;57.750;11.970;2023-06-14T08:43:32;74624.94;;;-142.11;80.12
14800;BME280;7491;57.750;11.970;2023-06-14T08:46:02;74604.56;;;-142.11;80.87
14800;BME280;7491;57.750;11.970;2023-06-14T08:48:29;74596.41;;;-142.11;75.84
14800;BME280;7491;57.750;11.970;2023-06-14T08:50:59;74565.84;;;-142.11;76.35
14800;BME280;7491;57.750;11.970;2023-06-14T08:53:30;74569.94;;;-142.11;76.03
14800;BME280;7491;57.750;11.970;2023-06-14T08:55:59;74551.59;;;-142.11;77.31
14800;BME280;7491;57.750;11.970;2023-06-14T08:58:27;74551.59;;;-142.11;75.04
14800;BME280;7491;57.750;11.970;2023-06-14T09:00:55;74569.94;;;-142.11;74.69
14800;BME280;7491;57.750;11.970;2023-06-14T09:03:22;74559.75;;;-142.11;74.62
14800;BME280;7491;57.750;11.970;2023-06-14T09:05:54;74559.75;;;-142.11;75.63
14800;BME280;7491;57.750;11.970;2023-06-14T09:08:22;74539.38;;;-142.11;76.85
14800;BME280;7491;57.750;11.970;2023-06-14T09:10:49;74574.00;;;-142.11;75.26
14800;BME280;7491;57.750;11.970;2023-06-14T09:13:17;74559.75;;;-142.11;77.47
14800;BME280;7491;57.750;11.970;2023-06-14T09:15:44;74543.44;;;-142.11;77.03
14800;BME280;7491;57.750;11.970;2023-06-14T09:18:11;74551.59;;;-142.11;75.84
14800;BME280;7491;57.750;11.970;2023-06-14T09:20:38;74561.78;;;-142.11;75.44
14800;BME280;7491;57.750;11.970;2023-06-14T09:23:04;74545.47;;;-142.11;75.82
14800;BME280;7491;57.750;11.970;2023-06-14T09:25:41;74561.78;;;-142.11;74.08
14800;BME280;7491;57.750;11.970;2023-06-14T09:28:08;74555.66;;;-142.11;73.31
14800;BME280;7491;57.750;11.970;2023-06-14T09:30:36;74543.44;;;-142.11;73.06
14800;BME280;7491;57.750;11.970;2023-06-14T09:33:02;74519.00;;;-142.11;74.75
14800;BME280;7491;57.750;11.970;2023-06-14T09:35:31;74510.84;;;-142.11;73.37
14800;BME280;7491;57.750;11.970;2023-06-14T09:37:58;74500.66;;;-142.11;73.86
14800;BME280;7491;57.750;11.970;2023-06-14T09:40:24;74488.44;;;-142.11;74.79
14800;BME280;7491;57.750;11.970;2023-06-14T09:42:53;74490.47;;;-142.11;73.09
14800;BME280;7491;57.750;11.970;2023-06-14T09:45:20;74494.53;;;-142.11;75.04
14800;BME280;7491;57.750;11.970;2023-06-14T09:47:48;74502.69;;;-142.11;72.91
14800;BME280;7491;57.750;11.970;2023-06-14T09:50:15;74486.38;;;-142.11;73.28
14800;BME280;7491;57.750;11.970;2023-06-14T09:52:43;74470.09;;;-142.11;73.70
14800;BME280;7491;57.750;11.970;2023-06-14T09:55:12;74480.28;;;-142.11;73.89
14800;BME280;7491;57.750;11.970;2023-06-14T09:57:41;74486.38;;;-142.11;74.62
14800;BME280;7491;57.750;11.970;2023-06-14T10:00:13;74478.25;;;-142.11;75.32
14800;BME280;7491;57.750;11.970;2023-06-14T10:02:42;74490.47;;;-142.11;75.49
14800;BME280;7491;57.750;11.970;2023-06-14T10:05:16;74502.69;;;-142.11;75.77
14800;BME280;7491;57.750;11.970;2023-06-14T10:07:52;74514.91;;;-142.11;75.44
14800;BME280;7491;57.750;11.970;2023-06-14T10:10:19;74512.88;;;-142.11;73.33
14800;BME280;7491;57.750;11.970;2023-06-14T10:12:47;74523.06;;;-142.11;73.29
14800;BME280;7491;57.750;11.970;2023-06-14T10:15:20;74549.56;;;-142.11;74.27
14800;BME280;7491;57.750;11.970;2023-06-14T10:17:54;74557.69;;;-142.11;74.03
14800;BME280;7491;57.750;11.970;2023-06-14T10:20:28;74565.84;;;-142.11;74.59
14800;BME280;7491;57.750;11.970;2023-06-14T10:23:01;74565.84;;;-142.11;75.44
14800;BME280;7491;57.750;11.970;2023-06-14T10:25:31;74586.22;;;-142.11;76.60
14800;BME280;7491;57.750;11.970;2023-06-14T10:28:17;74563.81;;;-142.11;76.80
14800;BME280;7491;57.750;11.970;2023-06-14T10:31:05;74561.78;;;-142.11;78.65
14800;BME280;7491;57.750;11.970;2023-06-14T10:33:33;74553.63;;;-142.11;76.60
14800;BME280;7491;57.750;11.970;2023-06-14T10:36:25;74553.63;;;-142.11;76.82
14800;BME280;7491;57.750;11.970;2023-06-14T10:38:57;74549.56;;;-142.11;77.08
14800;BME280;7491;57.750;11.970;2023-06-14T10:41:25;74557.69;;;-142.11;75.86
14800;BME280;7491;57.750;11.970;2023-06-14T10:43:53;74553.63;;;-142.11;75.70
14800;BME280;7491;57.750;11.970;2023-06-14T10:46:38;74563.81;;;-142.11;74.93
14800;BME280;7491;57.750;11.970;2023-06-14T10:49:05;74561.78;;;-142.11;75.68
14800;BME280;7491;57.750;11.970;2023-06-14T10:51:38;74563.81;;;-142.11;76.18
14800;BME280;7491;57.750;11.970;2023-06-14T10:54:11;74563.81;;;-142.11;77.21
14800;BME280;7491;57.750;11.970;2023-06-14T10:56:46;74555.66;;;-142.11;77.94
14800;BME280;7491;57.750;11.970;2023-06-14T10:59:12;74547.50;;;-142.11;78.13
14800;BME280;7491;57.750;11.970;2023-06-14T11:01:55;74523.06;;;-142.11;77.12
14800;BME280;7491;57.750;11.970;2023-06-14T11:04:28;74516.94;;;-142.11;75.32
14800;BME280;7491;57.750;11.970;2023-06-14T11:07:10;74510.84;;;-142.11;76.19
14800;BME280;7491;57.750;11.970;2023-06-14T11:10:00;74500.66;;;-142.11;75.73
14800;BME280;7491;57.750;11.970;2023-06-14T11:12:34;74504.72;;;-142.11;75.04
14800;BME280;7491;57.750;11.970;2023-06-14T11:15:02;74482.31;;;-142.11;74.34
14800;BME280;7491;57.750;11.970;2023-06-14T11:17:30;74470.09;;;-142.11;74.15
14800;BME280;7491;57.750;11.970;2023-06-14T11:20:09;74463.97;;;-142.11;74.76
14800;BME280;7491;57.750;11.970;2023-06-14T11:22:41;74461.94;;;-142.11;74.62
14800;BME280;7491;57.750;11.970;2023-06-14T11:25:08;74457.88;;;-142.11;73.62
14800;BME280;7491;57.750;11.970;2023-06-14T11:27:35;74443.59;;;-142.11;74.95
14800;BME280;7491;57.750;11.970;2023-06-14T11:30:02;74449.72;;;-142.11;73.85
14800;BME280;7491;57.750;11.970;2023-06-14T11:32:32;74441.56;;;-142.11;74.52
14800;BME280;7491;57.750;11.970;2023-06-14T11:34:59;74423.22;;;-142.11;74.76
14800;BME280;7491;57.750;11.970;2023-06-14T11:37:27;74413.03;;;-142.11;74.63
14800;BME280;7491;57.750;11.970;2023-06-14T11:39:56;74382.47;;;-142.11;74.41
14800;BME280;7491;57.750;11.970;2023-06-14T11:42:22;74362.09;;;-142.11;72.94
14800;BME280;7491;57.750;11.970;2023-06-14T11:44:49;74339.69;;;-142.11;70.37
14800;BME280;7491;57.750;11.970;2023-06-14T11:47:16;74341.72;;;-142.11;68.87
14800;BME280;7491;57.750;11.970;2023-06-14T11:49:44;74319.31;;;-142.11;68.12
14800;BME280;7491;57.750;11.970;2023-06-14T11:52:12;74315.25;;;-142.11;66.83
14800;BME280;7491;57.750;11.970;2023-06-14T11:54:39;74298.94;;;-142.11;67.09
14800;BME280;7491;57.750;11.970;2023-06-14T11:57:06;74311.16;;;-142.11;66.60
14800;BME280;7491;57.750;11.970;2023-06-14T11:59:38;74305.06;;;-142.11;66.76
14800;BME280;7491;57.750;11.970;2023-06-14T12:02:05;74292.84;;;-142.11;67.11
14800;BME280;7491;57.750;11.970;2023-06-14T12:04:32;74270.41;;;-142.11;65.66
14800;BME280;7491;57.750;11.970;2023-06-14T12:07:10;74243.94;;;-142.11;66.50
14800;BME280;7491;57.750;11.970;2023-06-14T12:09:40;74254.13;;;-142.11;65.63
14800;BME280;7491;57.750;11.970;2023-06-14T12:12:09;74245.97;;;-142.11;65.93
14800;BME280;7491;57.750;11.970;2023-06-14T12:14:36;74239.84;;;-142.11;65.51
14800;BME280;7491;57.750;11.970;2023-06-14T12:17:06;74256.16;;;-142.11;64.76
14800;BME280;7491;57.750;11.970;2023-06-14T12:19:33;74245.97;;;-142.11;64.54
14800;BME280;7491;57.750;11.970;2023-06-14T12:22:10;74219.50;;;-142.11;64.82
14800;BME280;7491;57.750;11.970;2023-06-14T12:24:37;74241.91;;;-142.11;64.18
14800;BME280;7491;57.750;11.970;2023-06-14T12:27:05;74235.78;;;-142.11;64.56
14800;BME280;7491;57.750;11.970;2023-06-14T12:29:32;74239.84;;;-142.11;64.00
14800;BME280;7491;57.750;11.970;2023-06-14T12:31:59;74219.50;;;-142.11;64.46
14800;BME280;7491;57.750;11.970;2023-06-14T12:34:26;74213.38;;;-142.11;64.15
14800;BME280;7491;57.750;11.970;2023-06-14T12:36:53;74199.13;;;-142.11;64.10
14800;BME280;7491;57.750;11.970;2023-06-14T12:39:22;74184.84;;;-142.11;63.21
14800;BME280;7491;57.750;11.970;2023-06-14T12:41:49;74174.66;;;-142.11;63.18